Current | Forecast
Updated: 7:00 PM JST on July 24, 2017
Observed at Hiroshima Airport, Japan
Temperature 79°F
Humidity 89%
Dew Point 75°F
Wind Variable at 2 mph
Pressure 29.68 in (Rising)
Conditions Mostly Cloudy
Visibility 5.0 miles
UV 0 out of 16
Clouds (FEW) : 1500 ft
Scattered Clouds (SCT) : 3500 ft
Mostly Cloudy (BKN) : 6000 ft
Yesterday's Maximum 84°F
Yesterday's Minimum 75°F approx.
Yesterday's Cooling Degree Days 15 approx.
Sunrise5:14 AM JST
Sunset7:17 PM JST
Moon Rise5:53 AM JST
Moon Set7:54 PM JST
Moon PhaseMoon Phase
New Moon
Raw METARMETAR RJOA 241000Z VRB02KT 8000 FEW015 SCT035 BKN060 26/24 Q1005


Monday
. High: 65° F.
Tuesday
. High: 69° F.
Wednesday
. High: 69° F.
Thursday
. High: 68° F.
Friday
. High: 69° F.
Saturday
. High: 71° F.
Sunday
. High: 73° F.
Monday
. High: 75° F.

Units: English | Metric

Find the Weather for any City, State or Zipcode, or Country:

U.S. State List | Severe Weather | Tropical Storms | Ski Conditions
United States | Canada | Central America | South America | Asia | Europe | Australia | Africa | Islands

Weather Underground

© Copyright 2017
The Weather Company, LLC